createdAt,value
2019-01-04T00:00:42.261Z,1032.16
2019-01-04T00:01:42.271Z,1032.16
2019-01-04T00:02:42.285Z,1032.19
2019-01-04T00:03:42.301Z,1032.18
2019-01-04T00:04:42.312Z,1032.13
2019-01-04T00:05:42.325Z,1032.17
2019-01-04T00:06:42.340Z,1032.17
2019-01-04T00:07:42.355Z,1032.14
2019-01-04T00:08:42.368Z,1032.15
2019-01-04T00:09:42.378Z,1032.15
2019-01-04T00:10:42.402Z,1032.12
2019-01-04T00:11:42.409Z,1032.11
2019-01-04T00:12:42.422Z,1032.09
2019-01-04T00:13:42.431Z,1032.04
2019-01-04T00:14:42.447Z,1032.03
2019-01-04T00:15:42.461Z,1031.99
2019-01-04T00:16:42.476Z,1031.96
2019-01-04T00:17:42.486Z,1031.96
2019-01-04T00:18:42.501Z,1031.96
2019-01-04T00:19:42.515Z,1031.94
2019-01-04T00:20:42.530Z,1031.93
2019-01-04T00:21:42.546Z,1031.97
2019-01-04T00:22:42.552Z,1031.95
2019-01-04T00:23:42.569Z,1031.93
2019-01-04T00:24:42.582Z,1031.88
2019-01-04T00:25:42.592Z,1031.84
2019-01-04T00:26:42.606Z,1031.82
2019-01-04T00:27:42.622Z,1031.85
2019-01-04T00:28:42.636Z,1031.88
2019-01-04T00:29:42.646Z,1031.85
2019-01-04T00:30:42.661Z,1031.92
2019-01-04T00:31:42.675Z,1031.90
2019-01-04T00:32:42.689Z,1031.91
2019-01-04T00:33:42.700Z,1031.91
2019-01-04T00:34:42.715Z,1031.92
2019-01-04T00:35:42.730Z,1031.90
2019-01-04T00:36:42.740Z,1031.90
2019-01-04T00:37:42.753Z,1031.84
2019-01-04T00:38:42.769Z,1031.83
2019-01-04T00:39:42.780Z,1031.85
2019-01-04T00:40:42.796Z,1031.82
2019-01-04T00:41:42.806Z,1031.89
2019-01-04T00:42:42.820Z,1031.83
2019-01-04T00:43:42.835Z,1031.80
2019-01-04T00:44:42.849Z,1031.81
2019-01-04T00:45:42.860Z,1031.79
2019-01-04T00:46:42.875Z,1031.79
2019-01-04T00:47:42.887Z,1031.79
2019-01-04T00:48:42.902Z,1031.83
2019-01-04T00:49:42.913Z,1031.83
2019-01-04T00:50:42.929Z,1031.83
2019-01-04T00:51:42.940Z,1031.81
2019-01-04T00:52:42.953Z,1031.81
2019-01-04T00:53:42.970Z,1031.84
2019-01-04T00:54:42.980Z,1031.84
2019-01-04T00:55:42.993Z,1031.88
2019-01-04T00:56:43.011Z,1031.88
2019-01-04T00:57:43.021Z,1031.86
2019-01-04T00:58:43.035Z,1031.88
2019-01-04T00:59:43.047Z,1031.83
2019-01-04T01:00:43.062Z,1031.81
2019-01-04T01:01:43.075Z,1031.82
2019-01-04T01:02:43.088Z,1031.80
2019-01-04T01:03:43.106Z,1031.74
2019-01-04T01:04:43.113Z,1031.82
2019-01-04T01:05:43.129Z,1031.81
2019-01-04T01:06:43.139Z,1031.82
2019-01-04T01:07:43.154Z,1031.88
2019-01-04T01:08:43.168Z,1031.94
2019-01-04T01:09:43.179Z,1031.95
2019-01-04T01:10:43.192Z,1032.00
2019-01-04T01:11:43.208Z,1032.00
2019-01-04T01:12:43.222Z,1032.01
2019-01-04T01:13:43.236Z,1032.04
2019-01-04T01:14:43.250Z,1032.04
2019-01-04T01:15:43.262Z,1032.06
2019-01-04T01:16:43.275Z,1032.06
2019-01-04T01:17:43.289Z,1032.11
2019-01-04T01:18:43.301Z,1032.13
2019-01-04T01:19:43.312Z,1032.10
2019-01-04T01:20:43.327Z,1032.10
2019-01-04T01:21:43.341Z,1032.10
2019-01-04T01:22:43.351Z,1032.09
2019-01-04T01:23:43.365Z,1032.09
2019-01-04T01:24:43.379Z,1032.05
2019-01-04T01:25:43.391Z,1032.04
2019-01-04T01:26:43.407Z,1032.06
2019-01-04T01:27:43.420Z,1032.10
2019-01-04T01:28:43.431Z,1032.07
2019-01-04T01:29:43.446Z,1032.06
2019-01-04T01:30:43.459Z,1032.10
2019-01-04T01:31:43.473Z,1032.08
2019-01-04T01:32:43.490Z,1032.09
2019-01-04T01:33:43.497Z,1032.17
2019-01-04T01:34:43.511Z,1032.14
2019-01-04T01:35:43.526Z,1032.15
2019-01-04T01:36:43.539Z,1032.21
2019-01-04T01:37:43.550Z,1032.21
2019-01-04T01:38:43.563Z,1032.28
2019-01-04T01:39:43.581Z,1032.27
2019-01-04T01:40:43.592Z,1032.19
2019-01-04T01:41:43.605Z,1032.29
2019-01-04T01:42:43.623Z,1032.24
2019-01-04T01:43:43.630Z,1032.28
2019-01-04T01:44:43.646Z,1032.27
2019-01-04T01:45:43.657Z,1032.29
2019-01-04T01:46:43.673Z,1032.25
2019-01-04T01:47:43.683Z,1032.16
2019-01-04T01:48:43.697Z,1032.18
2019-01-04T01:49:43.709Z,1032.14
2019-01-04T01:50:43.723Z,1032.08
2019-01-04T01:51:43.740Z,1032.05
2019-01-04T01:52:43.751Z,1032.06
2019-01-04T01:53:43.763Z,1032.03
2019-01-04T01:54:43.779Z,1032.00
2019-01-04T01:55:43.790Z,1031.99
2019-01-04T01:56:43.807Z,1031.95
2019-01-04T01:57:43.818Z,1031.96
2019-01-04T01:58:43.830Z,1031.95
2019-01-04T01:59:43.844Z,1031.92
2019-01-04T02:00:43.858Z,1031.99
2019-01-04T02:01:43.870Z,1031.95
2019-01-04T02:02:43.883Z,1031.89
2019-01-04T02:03:43.900Z,1031.90
2019-01-04T02:04:43.913Z,1031.88
2019-01-04T02:05:43.925Z,1031.89
2019-01-04T02:06:43.939Z,1031.90
2019-01-04T02:07:43.950Z,1031.93
2019-01-04T02:08:44.067Z,1031.93
2019-01-04T02:09:43.980Z,1031.94
2019-01-04T02:10:43.990Z,1031.96
2019-01-04T02:11:44.005Z,1031.94
2019-01-04T02:12:44.019Z,1031.94
2019-01-04T02:13:44.032Z,1031.94
2019-01-04T02:14:44.043Z,1031.92
2019-01-04T02:15:44.258Z,1031.90
2019-01-04T02:16:44.073Z,1031.96
2019-01-04T02:17:44.086Z,1031.94
2019-01-04T02:18:44.247Z,1031.99
2019-01-04T02:19:44.113Z,1031.96
2019-01-04T02:20:44.124Z,1031.97
2019-01-04T02:21:44.240Z,1031.97
2019-01-04T02:22:44.150Z,1031.92
2019-01-04T02:23:44.166Z,1031.92
2019-01-04T02:24:44.277Z,1031.91
2019-01-04T02:25:44.191Z,1031.86
2019-01-04T02:26:44.203Z,1031.89
2019-01-04T02:27:44.220Z,1031.88
2019-01-04T02:28:44.233Z,1031.81
2019-01-04T02:29:44.243Z,1031.87
2019-01-04T02:30:44.256Z,1031.87
2019-01-04T02:31:44.269Z,1031.84
2019-01-04T02:32:44.287Z,1031.89
2019-01-04T02:33:44.295Z,1031.93
2019-01-04T02:34:44.312Z,1031.89
2019-01-04T02:35:44.325Z,1031.91
2019-01-04T02:36:44.341Z,1031.96
2019-01-04T02:37:44.354Z,1031.91
2019-01-04T02:38:44.370Z,1031.89
2019-01-04T02:39:44.377Z,1031.86
2019-01-04T02:40:44.394Z,1031.87
2019-01-04T02:41:44.403Z,1031.89
2019-01-04T02:42:44.416Z,1031.86
2019-01-04T02:43:44.430Z,1031.93
2019-01-04T02:44:44.443Z,1031.94
2019-01-04T02:45:44.454Z,1031.87
2019-01-04T02:46:44.467Z,1031.91
2019-01-04T02:47:44.482Z,1031.93
2019-01-04T02:48:44.748Z,1031.98
2019-01-04T02:49:44.508Z,1031.97
2019-01-04T02:50:44.520Z,1031.97
2019-01-04T02:51:44.536Z,1031.97
2019-01-04T02:52:44.547Z,1031.97
2019-01-04T02:53:44.562Z,1031.99
2019-01-04T02:54:44.583Z,1032.02
2019-01-04T02:55:44.588Z,1031.99
2019-01-04T02:56:44.601Z,1031.97
2019-01-04T02:57:44.612Z,1032.01
2019-01-04T02:58:44.627Z,1031.99
2019-01-04T02:59:44.644Z,1032.00
2019-01-04T03:00:44.651Z,1031.98
2019-01-04T03:01:44.668Z,1031.99
2019-01-04T03:02:44.680Z,1032.00
2019-01-04T03:03:44.690Z,1032.00
2019-01-04T03:04:44.706Z,1032.04
2019-01-04T03:05:44.721Z,1032.01
2019-01-04T03:06:44.730Z,1032.01
2019-01-04T03:07:44.743Z,1032.01
2019-01-04T03:08:44.757Z,1031.99
2019-01-04T03:09:44.771Z,1031.95
2019-01-04T03:10:44.784Z,1031.98
2019-01-04T03:11:44.794Z,1031.95
2019-01-04T03:12:44.811Z,1031.96
2019-01-04T03:13:44.821Z,1031.94
2019-01-04T03:14:44.835Z,1031.91
2019-01-04T03:15:44.850Z,1031.95
2019-01-04T03:16:44.860Z,1031.88
2019-01-04T03:17:44.884Z,1031.90
2019-01-04T03:18:44.889Z,1031.86
2019-01-04T03:19:44.903Z,1031.80
2019-01-04T03:20:44.912Z,1031.81
2019-01-04T03:21:44.924Z,1031.82
2019-01-04T03:22:44.938Z,1031.81
2019-01-04T03:23:44.955Z,1031.81
2019-01-04T03:24:44.971Z,1031.85
2019-01-04T03:25:44.978Z,1031.81
2019-01-04T03:26:44.998Z,1031.79
2019-01-04T03:27:45.005Z,1031.80
2019-01-04T03:28:45.017Z,1031.78
2019-01-04T03:29:45.030Z,1031.71
2019-01-04T03:30:45.055Z,1031.69
2019-01-04T03:31:45.057Z,1031.66
2019-01-04T03:32:45.074Z,1031.57
2019-01-04T03:33:45.082Z,1031.58
2019-01-04T03:34:45.100Z,1031.57
2019-01-04T03:35:45.109Z,1031.53
2019-01-04T03:36:45.121Z,1031.48
2019-01-04T03:37:45.133Z,1031.54
2019-01-04T03:38:45.145Z,1031.50
2019-01-04T03:39:45.158Z,1031.45
2019-01-04T03:40:45.173Z,1031.47
2019-01-04T03:41:45.185Z,1031.41
2019-01-04T03:42:45.196Z,1031.42
2019-01-04T03:43:45.210Z,1031.40
2019-01-04T03:44:45.225Z,1031.36
2019-01-04T03:45:45.239Z,1031.34
2019-01-04T03:46:45.248Z,1031.27
2019-01-04T03:47:45.262Z,1031.25
2019-01-04T03:48:45.276Z,1031.20
2019-01-04T03:49:45.294Z,1031.20
2019-01-04T03:50:45.316Z,1031.20
2019-01-04T03:51:45.316Z,1031.24
2019-01-04T03:52:45.327Z,1031.21
2019-01-04T03:53:45.348Z,1031.23
2019-01-04T03:54:45.352Z,1031.23
2019-01-04T03:55:45.365Z,1031.26
2019-01-04T03:56:45.382Z,1031.31
2019-01-04T03:57:45.391Z,1031.31
2019-01-04T03:58:45.441Z,1031.35
2019-01-04T03:59:45.419Z,1031.36
2019-01-04T04:00:45.431Z,1031.35
2019-01-04T04:01:45.446Z,1031.38
2019-01-04T04:02:45.459Z,1031.39
2019-01-04T04:03:45.469Z,1031.42
2019-01-04T04:04:45.485Z,1031.41
2019-01-04T04:05:45.498Z,1031.38
2019-01-04T04:06:45.511Z,1031.37
2019-01-04T04:07:45.521Z,1031.33
2019-01-04T04:08:45.534Z,1031.30
2019-01-04T04:09:45.547Z,1031.27
2019-01-04T04:10:45.565Z,1031.24
2019-01-04T04:11:45.574Z,1031.20
2019-01-04T04:12:45.587Z,1031.20
2019-01-04T04:13:45.601Z,1031.18
2019-01-04T04:14:45.616Z,1031.17
2019-01-04T04:15:45.628Z,1031.19
2019-01-04T04:16:45.643Z,1031.19
2019-01-04T04:17:45.656Z,1031.21
2019-01-04T04:18:45.667Z,1031.25
2019-01-04T04:19:45.682Z,1031.27
2019-01-04T04:20:45.693Z,1031.31
2019-01-04T04:21:45.705Z,1031.35
2019-01-04T04:22:45.721Z,1031.32
2019-01-04T04:23:45.733Z,1031.31
2019-01-04T04:24:45.754Z,1031.34
2019-01-04T04:25:45.761Z,1031.25
2019-01-04T04:26:45.779Z,1031.25
2019-01-04T04:27:45.800Z,1031.26
2019-01-04T04:28:45.802Z,1031.25
2019-01-04T04:29:45.820Z,1031.21
2019-01-04T04:30:45.825Z,1031.23
2019-01-04T04:31:45.839Z,1031.20
2019-01-04T04:32:45.852Z,1031.21
2019-01-04T04:33:45.867Z,1031.13
2019-01-04T04:34:47.130Z,1031.12
2019-01-04T04:35:45.895Z,1031.10
2019-01-04T04:36:45.908Z,1031.06
2019-01-04T04:37:45.922Z,1031.04
2019-01-04T04:38:45.934Z,1031.06
2019-01-04T04:39:45.955Z,1031.07
2019-01-04T04:40:45.959Z,1031.04
2019-01-04T04:41:45.972Z,1031.04
2019-01-04T04:42:45.986Z,1031.03
2019-01-04T04:43:45.999Z,1031.00
2019-01-04T04:44:46.017Z,1031.02
2019-01-04T04:45:46.027Z,1031.01
2019-01-04T04:46:46.042Z,1031.02
2019-01-04T04:47:46.054Z,1031.08
2019-01-04T04:48:46.068Z,1031.09
2019-01-04T04:49:46.082Z,1031.13
2019-01-04T04:50:46.095Z,1031.09
2019-01-04T04:51:46.109Z,1031.08
2019-01-04T04:52:46.125Z,1031.11
2019-01-04T04:53:46.133Z,1031.16
2019-01-04T04:54:46.147Z,1031.19
2019-01-04T04:55:46.163Z,1031.18
2019-01-04T04:56:46.175Z,1031.17
2019-01-04T04:57:46.188Z,1031.14
2019-01-04T04:58:46.201Z,1031.16
2019-01-04T04:59:46.217Z,1031.16
2019-01-04T05:00:46.230Z,1031.20
2019-01-04T05:01:46.244Z,1031.20
2019-01-04T05:02:46.255Z,1031.20
2019-01-04T05:03:46.271Z,1031.25
2019-01-04T05:04:47.751Z,1031.21
2019-01-04T05:05:46.298Z,1031.20
2019-01-04T05:06:46.310Z,1031.22
2019-01-04T05:07:46.326Z,1031.21
2019-01-04T05:08:46.338Z,1031.19
2019-01-04T05:09:46.355Z,1031.17
2019-01-04T05:10:46.370Z,1031.17
2019-01-04T05:11:46.383Z,1031.17
2019-01-04T05:12:46.395Z,1031.13
2019-01-04T05:13:46.409Z,1031.10
2019-01-04T05:14:46.472Z,1031.10
2019-01-04T05:15:46.437Z,1031.10
2019-01-04T05:16:46.451Z,1031.10
2019-01-04T05:17:46.460Z,1031.15
2019-01-04T05:18:46.474Z,1031.13
2019-01-04T05:19:46.490Z,1031.15
2019-01-04T05:20:46.509Z,1031.14
2019-01-04T05:21:46.521Z,1031.12
2019-01-04T05:22:47.819Z,1031.08
2019-01-04T05:23:46.546Z,1031.04
2019-01-04T05:24:46.557Z,1031.00
2019-01-04T05:25:46.572Z,1030.99
2019-01-04T05:26:46.587Z,1030.98
2019-01-04T05:27:46.602Z,1030.93
2019-01-04T05:28:46.612Z,1030.91
2019-01-04T05:29:46.625Z,1030.89
2019-01-04T05:30:46.639Z,1030.83
2019-01-04T05:31:46.655Z,1030.83
2019-01-04T05:32:46.669Z,1030.77
2019-01-04T05:33:46.684Z,1030.77
2019-01-04T05:34:46.695Z,1030.76
2019-01-04T05:35:46.716Z,1030.72
2019-01-04T05:36:46.725Z,1030.74
2019-01-04T05:37:46.758Z,1030.77
2019-01-04T05:38:46.753Z,1030.76
2019-01-04T05:39:46.764Z,1030.76
2019-01-04T05:40:46.778Z,1030.76
2019-01-04T05:41:46.793Z,1030.81
2019-01-04T05:42:46.807Z,1030.77
2019-01-04T05:43:46.821Z,1030.74
2019-01-04T05:44:46.833Z,1030.67
2019-01-04T05:45:46.847Z,1030.63
2019-01-04T05:46:46.862Z,1030.64
2019-01-04T05:47:46.875Z,1030.61
2019-01-04T05:48:46.894Z,1030.64
2019-01-04T05:49:46.905Z,1030.63
2019-01-04T05:50:46.915Z,1030.62
2019-01-04T05:51:46.931Z,1030.62
2019-01-04T05:52:46.945Z,1030.62
2019-01-04T05:53:46.959Z,1030.64
2019-01-04T05:54:46.973Z,1030.72
2019-01-04T05:55:46.986Z,1030.76
2019-01-04T05:56:47.002Z,1030.79
2019-01-04T05:57:47.016Z,1030.82
2019-01-04T05:58:47.027Z,1030.80
2019-01-04T05:59:47.040Z,1030.81
2019-01-04T06:00:47.057Z,1030.83
2019-01-04T06:01:47.070Z,1030.74
2019-01-04T06:02:47.080Z,1030.73
2019-01-04T06:03:47.097Z,1030.74
2019-01-04T06:04:47.110Z,1030.81
2019-01-04T06:05:47.122Z,1030.83
2019-01-04T06:06:47.137Z,1030.88
2019-01-04T06:07:47.151Z,1030.90
2019-01-04T06:08:47.166Z,1030.83
2019-01-04T06:09:47.176Z,1030.75
2019-01-04T06:10:47.191Z,1030.70
2019-01-04T06:11:47.210Z,1030.71
2019-01-04T06:12:47.217Z,1030.65
2019-01-04T06:13:47.232Z,1030.68
2019-01-04T06:14:47.244Z,1030.67
2019-01-04T06:15:47.265Z,1030.67
2019-01-04T06:16:47.279Z,1030.71
2019-01-04T06:17:47.289Z,1030.74
2019-01-04T06:18:47.302Z,1030.75
2019-01-04T06:19:47.312Z,1030.80
2019-01-04T06:20:47.331Z,1030.80
2019-01-04T06:21:47.342Z,1030.80
2019-01-04T06:22:47.357Z,1030.79
2019-01-04T06:23:47.370Z,1030.78
2019-01-04T06:24:47.382Z,1030.72
2019-01-04T06:25:47.397Z,1030.76
2019-01-04T06:26:47.444Z,1030.77
2019-01-04T06:27:47.425Z,1030.79
2019-01-04T06:28:47.437Z,1030.77
2019-01-04T06:29:47.448Z,1030.79
2019-01-04T06:30:47.464Z,1030.81
2019-01-04T06:31:47.476Z,1030.84
2019-01-04T06:32:47.492Z,1030.81
2019-01-04T06:33:47.504Z,1030.87
2019-01-04T06:34:47.521Z,1030.86
2019-01-04T06:35:47.533Z,1030.85
2019-01-04T06:36:47.549Z,1030.83
2019-01-04T06:37:47.709Z,1030.83
2019-01-04T06:38:47.571Z,1030.81
2019-01-04T06:39:47.587Z,1030.78
2019-01-04T06:40:47.598Z,1030.80
2019-01-04T06:41:47.614Z,1030.77
2019-01-04T06:42:47.628Z,1030.77
2019-01-04T06:43:47.642Z,1030.79
2019-01-04T06:44:47.656Z,1030.76
2019-01-04T06:45:47.667Z,1030.71
2019-01-04T06:46:47.681Z,1030.70
2019-01-04T06:47:47.695Z,1030.65
2019-01-04T06:48:47.710Z,1030.68
2019-01-04T06:49:47.724Z,1030.72
2019-01-04T06:50:47.738Z,1030.70
2019-01-04T06:51:47.750Z,1030.68
2019-01-04T06:52:47.767Z,1030.69
2019-01-04T06:53:47.779Z,1030.70
2019-01-04T06:54:47.791Z,1030.75
2019-01-04T06:55:47.807Z,1030.77
2019-01-04T06:56:47.818Z,1030.73
2019-01-04T06:57:47.834Z,1030.71
2019-01-04T06:58:47.851Z,1030.74
2019-01-04T06:59:47.862Z,1030.79
2019-01-04T07:00:47.874Z,1030.79
2019-01-04T07:01:47.890Z,1030.88
2019-01-04T07:02:47.902Z,1030.87
2019-01-04T07:03:47.919Z,1030.91
2019-01-04T07:04:47.930Z,1030.95
2019-01-04T07:05:47.944Z,1030.96
2019-01-04T07:06:47.956Z,1031.00
2019-01-04T07:07:47.972Z,1031.01
2019-01-04T07:08:47.985Z,1030.94
2019-01-04T07:09:47.997Z,1030.98
2019-01-04T07:10:48.014Z,1030.94
2019-01-04T07:11:48.025Z,1030.90
2019-01-04T07:12:48.039Z,1030.84
2019-01-04T07:13:48.052Z,1030.82
2019-01-04T07:14:48.066Z,1030.82
2019-01-04T07:15:48.080Z,1030.76
2019-01-04T07:16:48.094Z,1030.80
2019-01-04T07:17:48.107Z,1030.79
2019-01-04T07:18:48.123Z,1030.78
2019-01-04T07:19:48.138Z,1030.78
2019-01-04T07:20:48.150Z,1030.80
2019-01-04T07:21:48.164Z,1030.81
2019-01-04T07:22:48.179Z,1030.78
2019-01-04T07:23:48.189Z,1030.78
2019-01-04T07:24:48.208Z,1030.78
2019-01-04T07:25:48.217Z,1030.74
2019-01-04T07:26:48.231Z,1030.81
2019-01-04T07:27:48.250Z,1030.82
2019-01-04T07:28:48.259Z,1030.80
2019-01-04T07:29:48.274Z,1030.80
2019-01-04T07:30:48.292Z,1030.85
2019-01-04T07:31:48.301Z,1030.93
2019-01-04T07:32:48.313Z,1030.90
2019-01-04T07:33:48.326Z,1030.90
2019-01-04T07:34:48.340Z,1030.91
2019-01-04T07:35:48.356Z,1030.90
2019-01-04T07:36:48.468Z,1030.86
2019-01-04T07:37:48.384Z,1030.90
2019-01-04T07:38:48.394Z,1030.90
2019-01-04T07:39:48.413Z,1030.89
2019-01-04T07:40:48.425Z,1030.88
2019-01-04T07:41:48.435Z,1030.87
2019-01-04T07:42:48.451Z,1030.89
2019-01-04T07:43:48.467Z,1030.94
2019-01-04T07:44:48.482Z,1030.93
2019-01-04T07:45:48.493Z,1030.90
2019-01-04T07:46:48.507Z,1030.91
2019-01-04T07:47:48.522Z,1030.95
2019-01-04T07:48:48.532Z,1030.95
2019-01-04T07:49:48.547Z,1030.89
2019-01-04T07:50:48.561Z,1030.83
2019-01-04T07:51:48.575Z,1030.83
2019-01-04T07:52:48.587Z,1030.82
2019-01-04T07:53:48.604Z,1030.79
2019-01-04T07:54:48.614Z,1030.79
2019-01-04T07:55:48.631Z,1030.86
2019-01-04T07:56:48.642Z,1030.77
2019-01-04T07:57:48.657Z,1030.82
2019-01-04T07:58:48.669Z,1030.72
2019-01-04T07:59:48.683Z,1030.74
2019-01-04T08:00:48.697Z,1030.77
2019-01-04T08:01:48.712Z,1030.74
2019-01-04T08:02:48.724Z,1030.78
2019-01-04T08:03:48.741Z,1030.75
2019-01-04T08:04:48.752Z,1030.73
2019-01-04T08:05:48.767Z,1030.78
2019-01-04T08:06:48.779Z,1030.77
2019-01-04T08:07:48.795Z,1030.75
2019-01-04T08:08:48.809Z,1030.75
2019-01-04T08:09:48.823Z,1030.71
2019-01-04T08:10:48.835Z,1030.74
2019-01-04T08:11:48.851Z,1030.73
2019-01-04T08:12:48.866Z,1030.79
2019-01-04T08:13:48.877Z,1030.78
2019-01-04T08:14:48.893Z,1030.77
2019-01-04T08:15:48.908Z,1030.75
2019-01-04T08:16:48.919Z,1030.74
2019-01-04T08:17:48.932Z,1030.74
2019-01-04T08:18:49.297Z,1030.72
2019-01-04T08:19:48.960Z,1030.73
2019-01-04T08:20:48.974Z,1030.71
2019-01-04T08:21:48.987Z,1030.68
2019-01-04T08:22:49.001Z,1030.72
2019-01-04T08:23:49.016Z,1030.68
2019-01-04T08:24:49.034Z,1030.67
2019-01-04T08:25:49.047Z,1030.64
2019-01-04T08:26:49.062Z,1030.69
2019-01-04T08:27:49.077Z,1030.72
2019-01-04T08:28:49.089Z,1030.66
2019-01-04T08:29:49.102Z,1030.65
2019-01-04T08:30:49.117Z,1030.64
2019-01-04T08:31:49.130Z,1030.63
2019-01-04T08:32:49.146Z,1030.65
2019-01-04T08:33:49.159Z,1030.67
2019-01-04T08:34:49.170Z,1030.66
2019-01-04T08:35:49.186Z,1030.64
2019-01-04T08:36:49.201Z,1030.65
2019-01-04T08:37:49.216Z,1030.63
2019-01-04T08:38:49.228Z,1030.63
2019-01-04T08:39:49.244Z,1030.58
2019-01-04T08:40:49.261Z,1030.61
2019-01-04T08:41:49.269Z,1030.61
2019-01-04T08:42:49.287Z,1030.66
2019-01-04T08:43:49.298Z,1030.59
2019-01-04T08:44:49.314Z,1030.55
2019-01-04T08:45:49.327Z,1030.61
2019-01-04T08:46:49.343Z,1030.59
2019-01-04T08:47:49.360Z,1030.63
2019-01-04T08:48:49.372Z,1030.62
2019-01-04T08:49:49.383Z,1030.56
2019-01-04T08:50:49.403Z,1030.59
2019-01-04T08:51:49.413Z,1030.67
2019-01-04T08:52:49.427Z,1030.66
2019-01-04T08:53:49.446Z,1030.64
2019-01-04T08:54:49.455Z,1030.61
2019-01-04T08:55:49.471Z,1030.59
2019-01-04T08:56:49.486Z,1030.53
2019-01-04T08:57:49.500Z,1030.54
2019-01-04T08:58:49.619Z,1030.50
2019-01-04T08:59:49.527Z,1030.48
2019-01-04T09:00:49.543Z,1030.45
2019-01-04T09:01:49.554Z,1030.46
2019-01-04T09:02:49.572Z,1030.47
2019-01-04T09:03:49.587Z,1030.44
2019-01-04T09:04:49.598Z,1030.42
2019-01-04T09:05:49.612Z,1030.44
2019-01-04T09:06:49.631Z,1030.42
2019-01-04T09:07:49.646Z,1030.43
2019-01-04T09:08:49.658Z,1030.39
2019-01-04T09:09:49.669Z,1030.40
2019-01-04T09:10:49.684Z,1030.43
2019-01-04T09:11:49.702Z,1030.43
2019-01-04T09:12:49.715Z,1030.45
2019-01-04T09:13:49.730Z,1030.42
2019-01-04T09:14:49.744Z,1030.41
2019-01-04T09:15:49.756Z,1030.42
2019-01-04T09:16:49.771Z,1030.36
2019-01-04T09:17:49.789Z,1030.37
2019-01-04T09:18:49.799Z,1030.33
2019-01-04T09:19:49.814Z,1030.37
2019-01-04T09:20:49.831Z,1030.34
2019-01-04T09:21:49.993Z,1030.30
2019-01-04T09:22:49.859Z,1030.30
2019-01-04T09:23:49.875Z,1030.33
2019-01-04T09:24:49.890Z,1030.28
2019-01-04T09:25:49.904Z,1030.24
2019-01-04T09:26:49.915Z,1030.25
2019-01-04T09:27:49.933Z,1030.28
2019-01-04T09:28:49.949Z,1030.29
2019-01-04T09:29:49.961Z,1030.30
2019-01-04T09:30:49.976Z,1030.27
2019-01-04T09:31:49.989Z,1030.23
2019-01-04T09:32:50.005Z,1030.27
2019-01-04T09:33:50.024Z,1030.19
2019-01-04T09:34:50.034Z,1030.17
2019-01-04T09:35:50.047Z,1030.15
2019-01-04T09:36:50.064Z,1030.19
2019-01-04T09:37:50.075Z,1030.18
2019-01-04T09:38:50.092Z,1030.20
2019-01-04T09:39:50.106Z,1030.23
2019-01-04T09:40:50.122Z,1030.22
2019-01-04T09:41:50.136Z,1030.19
2019-01-04T09:42:50.189Z,1030.17
2019-01-04T09:43:50.166Z,1030.10
2019-01-04T09:44:50.181Z,1030.09
2019-01-04T09:45:50.195Z,1030.14
2019-01-04T09:46:50.208Z,1030.09
2019-01-04T09:47:50.227Z,1030.12
2019-01-04T09:48:50.241Z,1030.11
2019-01-04T09:49:50.255Z,1030.07
2019-01-04T09:50:50.270Z,1030.09
2019-01-04T09:51:50.284Z,1030.07
2019-01-04T09:52:50.301Z,1030.02
2019-01-04T09:53:50.311Z,1030.05
2019-01-04T09:54:50.328Z,1030.00
2019-01-04T09:55:50.342Z,1030.03
2019-01-04T09:56:50.356Z,1030.02
2019-01-04T09:57:50.370Z,1029.89
2019-01-04T09:58:50.388Z,1029.89
2019-01-04T09:59:50.402Z,1029.89
2019-01-04T10:00:50.415Z,1029.82
2019-01-04T10:01:50.429Z,1029.90
2019-01-04T10:02:50.445Z,1029.90
2019-01-04T10:03:50.459Z,1029.86
2019-01-04T10:04:50.477Z,1029.87
2019-01-04T10:05:50.488Z,1029.86
2019-01-04T10:06:50.503Z,1029.86
2019-01-04T10:07:50.519Z,1029.81
2019-01-04T10:08:50.534Z,1029.83
2019-01-04T10:09:50.548Z,1029.83
2019-01-04T10:10:50.563Z,1029.79
2019-01-04T10:11:50.581Z,1029.81
2019-01-04T10:12:50.595Z,1029.75
2019-01-04T10:13:50.606Z,1029.80
2019-01-04T10:14:50.625Z,1029.78
2019-01-04T10:15:50.636Z,1029.71
2019-01-04T10:16:50.651Z,1029.78
2019-01-04T10:17:50.667Z,1029.76
2019-01-04T10:18:50.679Z,1029.77
2019-01-04T10:19:50.697Z,1029.79
2019-01-04T10:20:50.712Z,1029.71
2019-01-04T10:21:50.723Z,1029.67
2019-01-04T10:22:50.741Z,1029.72
2019-01-04T10:23:50.754Z,1029.75
2019-01-04T10:24:50.771Z,1029.77
2019-01-04T10:25:50.786Z,1029.73
2019-01-04T10:26:50.798Z,1029.79
2019-01-04T10:27:50.812Z,1029.73
2019-01-04T10:28:50.827Z,1029.73
2019-01-04T10:29:50.847Z,1029.69
2019-01-04T10:30:50.855Z,1029.65
2019-01-04T10:31:50.872Z,1029.69
2019-01-04T10:32:50.887Z,1029.67
2019-01-04T10:33:50.900Z,1029.65
2019-01-04T10:34:50.916Z,1029.61
2019-01-04T10:35:50.929Z,1029.65
2019-01-04T10:36:50.944Z,1029.56
2019-01-04T10:37:50.961Z,1029.55
2019-01-04T10:38:50.975Z,1029.51
2019-01-04T10:39:50.988Z,1029.52
2019-01-04T10:40:51.003Z,1029.55
2019-01-04T10:41:51.019Z,1029.59
2019-01-04T10:42:51.038Z,1029.59
2019-01-04T10:43:51.048Z,1029.62
2019-01-04T10:44:51.061Z,1029.58
2019-01-04T10:45:51.076Z,1029.53
2019-01-04T10:46:51.092Z,1029.49
2019-01-04T10:47:51.107Z,1029.48
2019-01-04T10:48:51.122Z,1029.43
2019-01-04T10:49:51.133Z,1029.44
2019-01-04T10:50:51.152Z,1029.44
2019-01-04T10:51:51.167Z,1029.42
2019-01-04T10:52:51.182Z,1029.36
2019-01-04T10:53:51.194Z,1029.36
2019-01-04T10:54:51.209Z,1029.36
2019-01-04T10:55:51.227Z,1029.36
2019-01-04T10:56:51.240Z,1029.29
2019-01-04T10:57:51.251Z,1029.32
2019-01-04T10:58:51.265Z,1029.23
2019-01-04T10:59:51.282Z,1029.21
2019-01-04T11:00:51.295Z,1029.16
2019-01-04T11:01:51.309Z,1029.20
2019-01-04T11:02:51.326Z,1029.22
2019-01-04T11:03:51.339Z,1029.23
2019-01-04T11:04:51.360Z,1029.19
2019-01-04T11:05:51.373Z,1029.19
2019-01-04T11:06:51.382Z,1029.20
2019-01-04T11:07:51.397Z,1029.17
2019-01-04T11:08:51.413Z,1029.09
2019-01-04T11:09:51.429Z,1029.13
2019-01-04T11:10:51.442Z,1029.12
2019-01-04T11:11:51.455Z,1029.17
2019-01-04T11:12:51.471Z,1029.22
2019-01-04T11:13:51.486Z,1029.20
2019-01-04T11:14:51.500Z,1029.18
2019-01-04T11:15:51.546Z,1029.05
2019-01-04T11:16:51.531Z,1029.07
2019-01-04T11:17:51.541Z,1029.04
2019-01-04T11:18:51.559Z,1029.01
2019-01-04T11:19:51.571Z,1029.00
2019-01-04T11:20:51.587Z,1028.93
2019-01-04T11:21:51.600Z,1028.89
2019-01-04T11:22:51.618Z,1028.89
2019-01-04T11:23:51.630Z,1028.82
2019-01-04T11:24:51.643Z,1028.84
2019-01-04T11:25:51.660Z,1028.86
2019-01-04T11:26:51.677Z,1028.86
2019-01-04T11:27:51.690Z,1028.85
2019-01-04T11:28:51.700Z,1028.78
2019-01-04T11:29:51.719Z,1028.77
2019-01-04T11:30:51.729Z,1028.75
2019-01-04T11:31:51.746Z,1028.72
2019-01-04T11:32:51.761Z,1028.70
2019-01-04T11:33:51.773Z,1028.64
2019-01-04T11:34:51.790Z,1028.67
2019-01-04T11:35:51.805Z,1028.62
2019-01-04T11:36:51.816Z,1028.62
2019-01-04T11:37:51.832Z,1028.65
2019-01-04T11:38:51.995Z,1028.62
2019-01-04T11:39:51.862Z,1028.65
2019-01-04T11:40:51.876Z,1028.64
2019-01-04T11:41:51.890Z,1028.61
2019-01-04T11:42:51.904Z,1028.61
2019-01-04T11:43:51.918Z,1028.61
2019-01-04T11:44:51.935Z,1028.64
2019-01-04T11:45:51.947Z,1028.66
2019-01-04T11:46:51.959Z,1028.71
2019-01-04T11:47:51.976Z,1028.71
2019-01-04T11:48:51.996Z,1028.71
2019-01-04T11:49:52.005Z,1028.76
2019-01-04T11:50:52.018Z,1028.77
2019-01-04T11:51:52.031Z,1028.82
2019-01-04T11:52:52.046Z,1028.82
2019-01-04T11:53:52.062Z,1028.78
2019-01-04T11:54:52.078Z,1028.79
2019-01-04T11:55:52.097Z,1028.79
2019-01-04T11:56:52.106Z,1028.78
2019-01-04T11:57:52.120Z,1028.85
2019-01-04T11:58:52.138Z,1028.77
2019-01-04T11:59:52.147Z,1028.74
2019-01-04T12:00:52.164Z,1028.68
2019-01-04T12:01:52.178Z,1028.60
2019-01-04T12:02:52.218Z,1028.61
2019-01-04T12:03:52.207Z,1028.54
2019-01-04T12:04:52.219Z,1028.51
2019-01-04T12:05:52.233Z,1028.47